createdAt,value
2019-03-16T00:03:39.177Z,0.83
2019-03-16T00:08:44.251Z,0.80
2019-03-16T00:13:49.350Z,0.80
2019-03-16T00:18:54.594Z,1.10
2019-03-16T00:23:59.654Z,0.70
2019-03-16T00:29:05.098Z,0.42
2019-03-16T00:34:10.264Z,0.60
2019-03-16T00:39:15.384Z,0.57
2019-03-16T00:44:20.520Z,0.50
2019-03-16T00:49:26.088Z,0.47
2019-03-16T00:54:31.157Z,0.60
2019-03-16T00:59:36.259Z,0.72
2019-03-16T01:04:41.528Z,0.60
2019-03-16T01:09:46.647Z,1.00
2019-03-16T01:14:51.777Z,0.80
2019-03-16T01:19:57.029Z,0.70
2019-03-16T01:25:02.222Z,0.80
2019-03-16T01:30:12.599Z,0.70
2019-03-16T01:35:17.767Z,0.60
2019-03-16T01:40:22.970Z,0.60
2019-03-16T01:45:28.289Z,0.50
2019-03-16T01:50:33.673Z,0.27
2019-03-16T01:55:38.763Z,0.40
2019-03-16T02:00:43.997Z,0.20
2019-03-16T02:05:49.060Z,0.30
2019-03-16T02:10:54.710Z,0.40
2019-03-16T02:16:10.263Z,0.70
2019-03-16T02:21:06.742Z,0.60
2019-03-16T02:26:11.950Z,0.40
2019-03-16T02:31:17.528Z,1.00
2019-03-16T02:36:22.645Z,0.60
2019-03-16T02:41:27.773Z,0.67
2019-03-16T02:46:32.819Z,0.73
2019-03-16T02:51:37.926Z,0.60
2019-03-16T02:56:43.100Z,0.90
2019-03-16T03:01:48.196Z,0.70
2019-03-16T03:06:53.364Z,0.68
2019-03-16T03:11:58.511Z,0.50
2019-03-16T03:17:04.759Z,0.40
2019-03-16T03:22:09.923Z,0.27
2019-03-16T03:27:15.061Z,0.50
2019-03-16T03:32:20.215Z,0.50
2019-03-16T03:37:25.314Z,0.40
2019-03-16T03:42:30.416Z,0.80
2019-03-16T03:47:35.589Z,0.60
2019-03-16T03:52:40.873Z,1.03
2019-03-16T03:57:46.032Z,0.50
2019-03-16T04:02:51.230Z,0.97
2019-03-16T04:07:56.392Z,0.60
2019-03-16T04:13:02.473Z,0.83
2019-03-16T04:18:07.658Z,1.50
2019-03-16T04:23:12.780Z,1.87
2019-03-16T04:28:18.029Z,1.62
2019-03-16T04:33:23.189Z,2.27
2019-03-16T04:38:28.427Z,2.10
2019-03-16T04:43:33.579Z,1.97
2019-03-16T04:48:38.838Z,1.90
2019-03-16T04:53:44.119Z,1.60
2019-03-16T04:58:51.547Z,1.67
2019-03-16T05:03:56.026Z,1.30
2019-03-16T05:09:01.227Z,1.47
2019-03-16T05:14:07.353Z,1.40
2019-03-16T05:19:12.762Z,1.60
2019-03-16T05:24:17.848Z,1.60
2019-03-16T05:29:23.042Z,1.60
2019-03-16T05:34:28.210Z,1.47
2019-03-16T05:39:33.614Z,1.50
2019-03-16T05:44:38.708Z,1.63
2019-03-16T05:49:43.864Z,1.30
2019-03-16T05:54:49.123Z,1.50
2019-03-16T05:59:54.235Z,1.80
2019-03-16T06:05:09.750Z,1.70
2019-03-16T06:10:09.121Z,1.72
2019-03-16T06:15:14.291Z,2.30
2019-03-16T06:20:19.385Z,1.50
2019-03-16T06:25:24.493Z,1.43
2019-03-16T06:30:30.751Z,1.97
2019-03-16T06:35:35.911Z,1.57
2019-03-16T06:40:41.066Z,1.47
2019-03-16T06:45:46.198Z,1.50
2019-03-16T06:50:51.213Z,1.50
2019-03-16T06:55:56.629Z,2.43
2019-03-16T07:01:01.739Z,1.90
2019-03-16T07:06:06.867Z,1.53
2019-03-16T07:11:11.928Z,3.00
2019-03-16T07:16:17.058Z,1.90
2019-03-16T07:21:22.154Z,1.50
2019-03-16T07:26:27.284Z,2.10
2019-03-16T07:31:32.328Z,1.40
2019-03-16T07:36:37.431Z,1.33
2019-03-16T07:41:42.628Z,1.73
2019-03-16T07:46:48.014Z,1.67
2019-03-16T07:51:53.291Z,1.27
2019-03-16T07:56:58.675Z,0.90
2019-03-16T08:02:03.841Z,1.10
2019-03-16T08:07:08.933Z,1.43
2019-03-16T08:12:14.066Z,1.00
2019-03-16T08:17:19.104Z,0.90
2019-03-16T08:22:24.166Z,0.90
2019-03-16T08:27:29.265Z,0.80
2019-03-16T08:32:34.377Z,1.20
2019-03-16T08:37:39.489Z,1.10
2019-03-16T08:42:44.574Z,1.30
2019-03-16T08:47:49.663Z,1.00
2019-03-16T08:52:54.874Z,1.03
2019-03-16T08:58:05.996Z,1.30
2019-03-16T09:03:07.126Z,1.40
2019-03-16T09:08:12.217Z,1.87
2019-03-16T09:13:17.309Z,1.57
2019-03-16T09:18:22.391Z,1.50
2019-03-16T09:23:28.088Z,1.37
2019-03-16T09:28:33.190Z,1.60
2019-03-16T09:33:38.253Z,1.20
2019-03-16T09:38:43.378Z,1.17
2019-03-16T09:43:48.697Z,1.27
2019-03-16T09:48:53.803Z,1.00
2019-03-16T09:53:58.991Z,1.50
2019-03-16T09:59:05.020Z,1.20
2019-03-16T10:04:10.265Z,0.85
2019-03-16T10:09:15.453Z,1.60
2019-03-16T10:14:20.526Z,1.40
2019-03-16T10:19:25.664Z,2.90
2019-03-16T10:24:30.839Z,2.00
2019-03-16T10:29:35.914Z,1.80
2019-03-16T10:34:40.934Z,2.40
2019-03-16T10:39:46.030Z,1.90
2019-03-16T10:44:51.124Z,3.00
2019-03-16T10:49:56.258Z,1.63
2019-03-16T10:55:01.395Z,2.07
2019-03-16T11:00:09.655Z,2.07
2019-03-16T11:05:14.859Z,4.00
2019-03-16T11:10:20.025Z,2.60
2019-03-16T11:15:25.138Z,1.77
2019-03-16T11:20:30.351Z,6.20
2019-03-16T11:25:35.601Z,1.90
2019-03-16T11:30:40.678Z,3.07
2019-03-16T11:35:45.931Z,2.20
2019-03-16T12:10:33.878Z,2.30
2019-03-16T12:15:39.160Z,1.93
2019-03-16T12:20:44.286Z,2.33
2019-03-16T12:25:49.443Z,2.53
2019-03-16T12:30:54.596Z,2.17
2019-03-16T12:35:59.616Z,2.13
2019-03-16T12:41:05.081Z,1.50
2019-03-16T12:46:11.527Z,2.03
2019-03-16T12:51:16.683Z,1.45
2019-03-16T12:56:21.768Z,1.82
2019-03-16T13:01:26.902Z,2.20
2019-03-16T13:06:31.989Z,1.60
2019-03-16T13:11:37.475Z,1.85
2019-03-16T13:16:42.806Z,2.50
2019-03-16T13:21:48.310Z,2.10
2019-03-16T13:26:53.464Z,2.27
2019-03-16T13:31:58.579Z,2.00
2019-03-16T13:37:04.601Z,1.95
2019-03-16T13:42:10.102Z,1.82
2019-03-16T13:47:15.345Z,1.82
2019-03-16T13:52:20.526Z,1.80
2019-03-16T13:57:25.645Z,2.23
2019-03-16T14:02:30.649Z,1.93
2019-03-16T14:07:35.901Z,3.87
2019-03-16T14:12:41.042Z,4.90
2019-03-16T14:17:46.501Z,2.67
2019-03-16T14:22:51.833Z,4.00
2019-03-16T14:27:57.099Z,2.13
2019-03-16T14:33:02.346Z,2.80
2019-03-16T14:38:07.546Z,2.60
2019-03-16T14:43:13.099Z,4.75
2019-03-16T14:48:18.163Z,4.20
2019-03-16T14:53:23.305Z,2.20
2019-03-16T14:58:28.561Z,4.13
2019-03-16T15:03:33.687Z,2.10
2019-03-16T15:08:38.791Z,3.83
2019-03-16T15:13:44.174Z,2.53
2019-03-16T15:18:50.421Z,2.97
2019-03-16T15:23:55.567Z,6.27
2019-03-16T15:29:02.660Z,13.10
2019-03-16T15:34:07.714Z,3.47
2019-03-16T15:39:12.930Z,2.90
2019-03-16T15:44:18.378Z,3.27
2019-03-16T15:49:23.616Z,3.90
2019-03-16T15:54:28.712Z,2.70
2019-03-16T16:04:52.451Z,5.33
2019-03-16T16:09:57.813Z,3.73
2019-03-16T16:15:03.411Z,3.57
2019-03-16T16:20:17.293Z,3.67
2019-03-16T16:25:22.463Z,4.00
2019-03-16T16:30:27.627Z,3.42
2019-03-16T16:35:32.820Z,3.70
2019-03-16T16:40:38.164Z,3.50
2019-03-16T16:45:43.415Z,5.37
2019-03-16T16:50:48.577Z,5.60
2019-03-16T16:55:53.762Z,12.20
2019-03-16T17:00:58.902Z,6.23
2019-03-16T17:06:04.536Z,9.30
2019-03-16T17:11:09.783Z,5.50
2019-03-16T17:16:15.357Z,5.53
2019-03-16T17:21:20.455Z,13.88
2019-03-16T17:26:25.561Z,6.30
2019-03-16T17:31:41.748Z,6.03
2019-03-16T17:36:37.527Z,7.97
2019-03-16T17:41:42.683Z,5.63
2019-03-16T17:46:47.925Z,20.20
2019-03-16T17:51:53.029Z,23.70
2019-03-16T17:56:58.203Z,12.50
2019-03-16T18:02:03.302Z,20.93
2019-03-16T18:07:08.528Z,12.90
2019-03-16T18:12:13.778Z,19.75
2019-03-16T18:17:19.291Z,10.53
2019-03-16T18:22:24.586Z,15.05
2019-03-16T18:27:29.675Z,11.93
2019-03-16T18:32:34.757Z,10.33
2019-03-16T18:37:41.101Z,10.23
2019-03-16T18:42:47.386Z,12.20
2019-03-16T18:47:52.468Z,11.83
2019-03-16T18:52:57.591Z,12.07
2019-03-16T18:58:02.833Z,16.07
2019-03-16T19:03:11.436Z,13.90
2019-03-16T19:08:15.183Z,14.90
2019-03-16T19:13:20.312Z,14.98
2019-03-16T19:18:25.609Z,16.50
2019-03-16T19:23:31.915Z,13.53
2019-03-16T19:28:37.151Z,22.23
2019-03-16T19:33:42.256Z,15.93
2019-03-16T19:38:47.455Z,14.33
2019-03-16T19:43:52.526Z,13.95
2019-03-16T19:48:58.702Z,14.83
2019-03-16T19:54:04.715Z,14.40
2019-03-16T19:59:09.854Z,13.18
2019-03-16T20:04:15.023Z,14.00
2019-03-16T20:09:20.295Z,15.47
2019-03-16T20:14:25.389Z,15.63
2019-03-16T20:19:30.761Z,15.63
2019-03-16T20:24:36.025Z,13.00
2019-03-16T20:29:41.262Z,14.00
2019-03-16T20:34:46.320Z,20.33
2019-03-16T20:39:51.603Z,22.77
2019-03-16T20:44:56.845Z,18.60
2019-03-16T20:50:01.997Z,13.13
2019-03-16T20:55:08.546Z,11.97
2019-03-16T21:00:17.557Z,10.63
2019-03-16T21:05:22.678Z,10.78
2019-03-16T21:10:27.836Z,12.97
2019-03-16T21:15:32.882Z,10.70
2019-03-16T21:20:38.441Z,13.27
2019-03-16T21:25:43.636Z,10.80
2019-03-16T21:30:48.805Z,14.50
2019-03-16T21:35:54.178Z,11.33
2019-03-16T21:40:59.350Z,13.93
2019-03-16T21:46:05.730Z,14.77
2019-03-16T21:51:11.019Z,12.10
2019-03-16T21:56:16.142Z,12.27
2019-03-16T22:01:21.398Z,18.13
2019-03-16T22:06:26.592Z,12.33
2019-03-16T22:11:31.773Z,17.33
2019-03-16T22:16:37.037Z,17.80
2019-03-16T22:21:42.528Z,20.60
2019-03-16T22:26:47.751Z,15.97
2019-03-16T22:31:52.971Z,14.50
2019-03-16T22:36:58.089Z,16.17
2019-03-16T22:42:03.309Z,16.63
2019-03-16T22:47:09.587Z,15.03
2019-03-16T22:52:14.675Z,13.90
2019-03-16T22:57:19.813Z,13.20
2019-03-16T23:02:25.007Z,12.70
2019-03-16T23:07:30.272Z,8.83
2019-03-16T23:12:35.509Z,9.13
2019-03-16T23:17:40.813Z,12.80
2019-03-16T23:22:46.123Z,12.93
2019-03-16T23:27:51.245Z,11.73
2019-03-16T23:32:56.662Z,11.87
2019-03-16T23:38:01.898Z,10.20
2019-03-16T23:43:07.176Z,8.77
2019-03-16T23:48:12.230Z,9.90
2019-03-16T23:53:17.254Z,6.00
2019-03-16T23:58:22.363Z,6.73
